Terminal Aerodrome Forecast
Issued by NWS St Louis, MO

Home | Current Version | Previous Version | Text Only | Print | Product List | Glossary On
Versions: 1 2 3 4 5 6 7 8 9 10 11 12 13 14 15 16
344
FTUS43 KLSX 241727
TAFCOU
TAF
KCOU 241727Z 2418/2518 32014KT P6SM SKC
     FM242300 32007KT P6SM SKC
     FM250200 24005KT P6SM FEW100
     FM250900 30008KT P6SM FEW100=

USA.gov is the U.S. government's official web portal to all federal, state and local government web resources and services.